Cascade, MT

7:00 PM MDT on October 24, 2014 (GMT -0600)
Great Falls International | Change Station
CLOSE
Current Station
Airport
Location: Great Falls,
Elevation: 3658 ft
Nearby Weather Stations

Elev 3658 ft 47.47 °N, 111.38 °W | Updated 7 minutes ago

Overcast
Overcast
50 °F
Feels Like 50 °F
N
4
Wind Variable Wind from SW

Today
High -- | Low -- °F
--% Chance of Precip.
Yesterday
High -- | Low -- °F
Precip. -- in
7:58 AM 6:22 PM
New Moon, 1% visible
Pressure 30.09 in
Visibility 10.0 miles
Clouds Clear
Dew Point 35 °F
Humidity 57%
Rainfall 0.00 in
Snow Depth Not available.
UV 0 out of 12
Pollen 3.20 out of 12
Air Quality Not available.
Flu Activity No Activity
METAR KGTF 250053Z 23003KT 10SM CLR 10/02 A3006 RMK AO2 SLP187 T01000017

More Conditions Fewer Conditions

Pressure 30.09 in
Visibility 10.0 miles
Clouds Clear
Dew Point 35 °F
Humidity 57%
Rainfall 0.00 in
Snow Depth Not available.
UV 0 out of 12
Pollen 3.20 out of 12
Air Quality Not available.
Flu Activity No Activity
METAR KGTF 250053Z 23003KT 10SM CLR 10/02 A3006 RMK AO2 SLP187 T01000017

More Conditions Fewer Conditions

10-Day Weather Forecast

Almanac

Astronomy

Oct. 24, 2014 Rise Set
Actual Time 7:58 AM MDT 6:22 PM MDT
Civil Twilight 7:26 AM MDT 6:54 PM MDT
Nautical Twilight 6:51 AM MDT 7:29 PM MDT
Astronomical Twilight 6:15 AM MDT 8:05 PM MDT
Moon 8:43 AM MDT (10/24) 7:02 PM MDT (10/24)
Length of Visible Light 11h 27m
Length of Day
10h 24m
Tomorrow will be 3m 10s shorter.
New Moon, 1% of the Moon is Illuminated
Today
New Moon
Oct 30
First Quarter
Nov 6
Full
Nov 14
Last Quarter
Nov 22
New

Today's Extremes

State Highs State Lows

Community

WunderPhotos

Upload Photos

1,764,737 photos uploaded!

WunderBlogs® & News

Nearby

Snow Depth

Station Depth Elevation
Stringer Creek 0 in 6550 ft
Copper Bottom 0 in 5200 ft
Onion Park 0 in 7410 ft
Nevada Ridge 0 in 7020 ft
Pickfoot Creek 0 in 6650 ft

Earthquake Activity

City Distance Mag. Time & Date
No recent earthquake activity has been reported nearby.
Minimum magnitude displayed is 2.5.

Coastal Water Temperatures

Place Temperature
No Stations Reporting

Nearby Weather Stations